sensor_id;sensor_type;location;lat;lon;timestamp;pressure;altitude;pressure_sealevel;temperature;humidity
12536;BME280;6334;48.696;2.114;2023-05-01T00:01:40;100074.83;;;13.63;62.70
12536;BME280;6334;48.696;2.114;2023-05-01T00:04:11;100071.41;;;13.63;62.17
12536;BME280;6334;48.696;2.114;2023-05-01T00:06:41;100068.27;;;13.33;62.88
12536;BME280;6334;48.696;2.114;2023-05-01T00:09:13;100067.23;;;13.49;62.69
12536;BME280;6334;48.696;2.114;2023-05-01T00:11:43;100067.74;;;13.59;62.26
12536;BME280;6334;48.696;2.114;2023-05-01T00:14:13;100069.60;;;13.40;63.18
12536;BME280;6334;48.696;2.114;2023-05-01T00:16:44;100064.71;;;13.50;62.49
12536;BME280;6334;48.696;2.114;2023-05-01T00:19:14;100064.22;;;13.49;62.31
12536;BME280;6334;48.696;2.114;2023-05-01T00:21:45;100059.56;;;13.47;62.51
12536;BME280;6334;48.696;2.114;2023-05-01T00:24:15;100063.45;;;13.53;62.52
12536;BME280;6334;48.696;2.114;2023-05-01T00:26:46;100061.18;;;13.36;63.02
12536;BME280;6334;48.696;2.114;2023-05-01T00:29:16;100056.41;;;13.48;62.74
12536;BME280;6334;48.696;2.114;2023-05-01T00:31:47;100056.27;;;13.38;63.01
12536;BME280;6334;48.696;2.114;2023-05-01T00:34:17;100051.97;;;13.40;62.61
12536;BME280;6334;48.696;2.114;2023-05-01T00:36:48;100050.08;;;13.39;62.83
12536;BME280;6334;48.696;2.114;2023-05-01T00:39:18;100046.03;;;13.36;62.69
12536;BME280;6334;48.696;2.114;2023-05-01T00:41:49;100037.83;;;13.28;63.00
12536;BME280;6334;48.696;2.114;2023-05-01T00:44:19;100037.79;;;13.27;62.79
12536;BME280;6334;48.696;2.114;2023-05-01T00:46:50;100036.58;;;13.45;62.33
12536;BME280;6334;48.696;2.114;2023-05-01T00:49:20;100029.14;;;13.37;62.84
12536;BME280;6334;48.696;2.114;2023-05-01T00:51:51;100029.05;;;13.29;63.29
12536;BME280;6334;48.696;2.114;2023-05-01T00:54:21;100024.48;;;13.06;63.36
12536;BME280;6334;48.696;2.114;2023-05-01T00:56:52;100026.92;;;12.89;63.66
12536;BME280;6334;48.696;2.114;2023-05-01T00:59:22;100015.61;;;12.87;63.64
12536;BME280;6334;48.696;2.114;2023-05-01T01:01:53;100019.55;;;12.79;64.77
12536;BME280;6334;48.696;2.114;2023-05-01T01:04:23;100016.84;;;12.88;64.20
12536;BME280;6334;48.696;2.114;2023-05-01T01:07:17;100013.48;;;12.61;64.85
12536;BME280;6334;48.696;2.114;2023-05-01T01:12:33;100002.27;;;13.05;63.12
12536;BME280;6334;48.696;2.114;2023-05-01T01:15:24;100005.20;;;12.98;63.45
12536;BME280;6334;48.696;2.114;2023-05-01T01:26:37;100001.91;;;12.28;66.62
12536;BME280;6334;48.696;2.114;2023-05-01T01:34:54;100006.34;;;12.48;65.23
12536;BME280;6334;48.696;2.114;2023-05-01T01:37:27;100005.98;;;12.54;65.75
12536;BME280;6334;48.696;2.114;2023-05-01T01:40:23;100004.63;;;12.29;66.23
12536;BME280;6334;48.696;2.114;2023-05-01T01:42:35;100004.23;;;12.10;66.94
12536;BME280;6334;48.696;2.114;2023-05-01T01:45:05;99996.47;;;12.36;65.10
12536;BME280;6334;48.696;2.114;2023-05-01T01:47:35;99998.10;;;12.35;65.33
12536;BME280;6334;48.696;2.114;2023-05-01T01:50:05;99999.10;;;12.71;64.97
12536;BME280;6334;48.696;2.114;2023-05-01T01:52:36;100001.75;;;12.77;63.50
12536;BME280;6334;48.696;2.114;2023-05-01T01:55:07;99997.96;;;12.66;64.93
12536;BME280;6334;48.696;2.114;2023-05-01T01:57:37;100002.83;;;12.52;64.70
12536;BME280;6334;48.696;2.114;2023-05-01T02:00:08;100003.16;;;12.80;64.31
12536;BME280;6334;48.696;2.114;2023-05-01T02:02:38;100008.93;;;12.64;64.65
12536;BME280;6334;48.696;2.114;2023-05-01T02:05:10;100005.88;;;12.97;64.00
12536;BME280;6334;48.696;2.114;2023-05-01T02:07:38;100004.38;;;12.93;64.68
12536;BME280;6334;48.696;2.114;2023-05-01T02:10:10;100000.55;;;12.86;65.11
12536;BME280;6334;48.696;2.114;2023-05-01T02:12:40;99999.98;;;13.03;64.24
12536;BME280;6334;48.696;2.114;2023-05-01T02:15:10;99997.48;;;12.73;65.16
12536;BME280;6334;48.696;2.114;2023-05-01T02:17:40;100002.63;;;12.81;65.71
12536;BME280;6334;48.696;2.114;2023-05-01T02:20:11;99998.47;;;12.61;65.71
12536;BME280;6334;48.696;2.114;2023-05-01T02:22:43;99999.26;;;12.88;65.23
12536;BME280;6334;48.696;2.114;2023-05-01T02:25:12;100000.18;;;12.95;65.53
12536;BME280;6334;48.696;2.114;2023-05-01T02:30:23;100000.17;;;12.71;67.00
12536;BME280;6334;48.696;2.114;2023-05-01T02:32:54;100000.20;;;13.05;64.95
12536;BME280;6334;48.696;2.114;2023-05-01T02:35:24;100000.24;;;13.10;64.77
12536;BME280;6334;48.696;2.114;2023-05-01T02:37:55;100003.58;;;12.73;67.40
12536;BME280;6334;48.696;2.114;2023-05-01T02:40:25;100008.55;;;12.86;67.13
12536;BME280;6334;48.696;2.114;2023-05-01T02:42:55;100006.31;;;12.57;67.25
12536;BME280;6334;48.696;2.114;2023-05-01T02:45:26;100005.77;;;12.79;67.29
12536;BME280;6334;48.696;2.114;2023-05-01T02:47:56;99998.17;;;12.60;67.77
12536;BME280;6334;48.696;2.114;2023-05-01T02:50:27;99996.56;;;12.36;68.51
12536;BME280;6334;48.696;2.114;2023-05-01T02:52:57;100004.78;;;12.43;69.72
12536;BME280;6334;48.696;2.114;2023-05-01T02:55:28;100003.78;;;12.66;68.98
12536;BME280;6334;48.696;2.114;2023-05-01T02:57:58;100002.56;;;12.80;67.05
12536;BME280;6334;48.696;2.114;2023-05-01T03:00:29;100007.06;;;12.82;67.01
12536;BME280;6334;48.696;2.114;2023-05-01T03:02:59;100004.59;;;12.68;67.55
12536;BME280;6334;48.696;2.114;2023-05-01T03:05:30;100004.91;;;13.03;67.23
12536;BME280;6334;48.696;2.114;2023-05-01T03:08:00;100011.52;;;12.56;69.62
12536;BME280;6334;48.696;2.114;2023-05-01T03:10:31;99998.37;;;12.78;68.70
12536;BME280;6334;48.696;2.114;2023-05-01T03:13:01;100004.64;;;12.73;68.78
12536;BME280;6334;48.696;2.114;2023-05-01T03:15:31;99975.39;;;12.86;67.10
12536;BME280;6334;48.696;2.114;2023-05-01T03:18:02;100001.81;;;12.88;68.37
12536;BME280;6334;48.696;2.114;2023-05-01T03:20:32;100006.53;;;12.59;69.33
12536;BME280;6334;48.696;2.114;2023-05-01T03:23:03;100009.42;;;12.73;68.43
12536;BME280;6334;48.696;2.114;2023-05-01T03:25:33;100004.68;;;12.60;68.13
12536;BME280;6334;48.696;2.114;2023-05-01T03:28:04;100004.71;;;12.66;68.25
12536;BME280;6334;48.696;2.114;2023-05-01T03:30:34;100003.86;;;12.47;68.12
12536;BME280;6334;48.696;2.114;2023-05-01T03:33:05;100003.08;;;12.56;67.93
12536;BME280;6334;48.696;2.114;2023-05-01T03:35:35;100002.66;;;12.61;68.18
12536;BME280;6334;48.696;2.114;2023-05-01T03:38:06;99999.79;;;12.78;67.72
12536;BME280;6334;48.696;2.114;2023-05-01T03:40:36;100002.61;;;12.63;67.94
12536;BME280;6334;48.696;2.114;2023-05-01T03:43:07;100001.73;;;12.68;67.44
12536;BME280;6334;48.696;2.114;2023-05-01T03:45:37;100003.54;;;12.58;68.18
12536;BME280;6334;48.696;2.114;2023-05-01T03:48:08;99997.89;;;12.73;68.21
12536;BME280;6334;48.696;2.114;2023-05-01T03:50:39;100000.53;;;12.85;67.99
12536;BME280;6334;48.696;2.114;2023-05-01T03:53:09;100002.48;;;12.58;69.17
12536;BME280;6334;48.696;2.114;2023-05-01T03:55:39;100004.73;;;12.44;69.12
12536;BME280;6334;48.696;2.114;2023-05-01T03:58:10;100000.11;;;12.78;67.75
12536;BME280;6334;48.696;2.114;2023-05-01T04:00:40;100002.36;;;12.94;67.57
12536;BME280;6334;48.696;2.114;2023-05-01T04:03:11;100005.28;;;12.39;69.74
12536;BME280;6334;48.696;2.114;2023-05-01T04:05:41;100002.23;;;12.41;69.51
12536;BME280;6334;48.696;2.114;2023-05-01T04:08:13;100001.44;;;12.59;68.36
12536;BME280;6334;48.696;2.114;2023-05-01T04:10:44;99998.52;;;12.78;68.75
12536;BME280;6334;48.696;2.114;2023-05-01T04:13:14;100005.54;;;12.82;67.60
12536;BME280;6334;48.696;2.114;2023-05-01T04:15:44;100005.62;;;12.78;68.17
12536;BME280;6334;48.696;2.114;2023-05-01T04:18:15;100009.09;;;12.51;68.77
12536;BME280;6334;48.696;2.114;2023-05-01T04:20:45;100006.81;;;12.61;69.26
12536;BME280;6334;48.696;2.114;2023-05-01T04:23:16;100001.33;;;12.40;69.56
12536;BME280;6334;48.696;2.114;2023-05-01T04:25:46;100003.41;;;12.68;69.17
12536;BME280;6334;48.696;2.114;2023-05-01T04:28:17;100002.36;;;12.38;69.74
12536;BME280;6334;48.696;2.114;2023-05-01T04:30:47;100011.10;;;12.79;67.60
12536;BME280;6334;48.696;2.114;2023-05-01T04:33:18;100009.19;;;12.71;68.31
12536;BME280;6334;48.696;2.114;2023-05-01T04:35:48;100006.07;;;12.64;68.41
12536;BME280;6334;48.696;2.114;2023-05-01T04:38:19;100013.52;;;12.31;69.59
12536;BME280;6334;48.696;2.114;2023-05-01T04:40:49;100014.22;;;12.38;69.80
12536;BME280;6334;48.696;2.114;2023-05-01T04:43:20;100015.20;;;12.34;70.36
12536;BME280;6334;48.696;2.114;2023-05-01T04:45:50;100014.52;;;12.48;69.82
12536;BME280;6334;48.696;2.114;2023-05-01T04:48:20;100016.34;;;12.52;69.26
12536;BME280;6334;48.696;2.114;2023-05-01T04:50:51;100024.27;;;12.49;69.47
12536;BME280;6334;48.696;2.114;2023-05-01T04:53:21;100026.63;;;12.22;70.93
12536;BME280;6334;48.696;2.114;2023-05-01T04:55:52;100020.77;;;12.80;68.66
12536;BME280;6334;48.696;2.114;2023-05-01T04:58:22;100023.19;;;12.52;69.14
12536;BME280;6334;48.696;2.114;2023-05-01T05:00:53;100032.31;;;12.26;69.79
12536;BME280;6334;48.696;2.114;2023-05-01T05:03:23;100030.54;;;12.43;70.00
12536;BME280;6334;48.696;2.114;2023-05-01T05:05:54;100033.00;;;12.23;71.05
12536;BME280;6334;48.696;2.114;2023-05-01T05:08:24;100039.47;;;12.17;71.18
12536;BME280;6334;48.696;2.114;2023-05-01T05:10:57;100034.88;;;12.77;68.91
12536;BME280;6334;48.696;2.114;2023-05-01T05:13:28;100038.81;;;12.55;70.03
12536;BME280;6334;48.696;2.114;2023-05-01T05:15:59;100041.99;;;12.51;70.29
12536;BME280;6334;48.696;2.114;2023-05-01T05:18:30;100042.55;;;12.44;69.85
12536;BME280;6334;48.696;2.114;2023-05-01T05:21:03;100046.52;;;12.36;70.93
12536;BME280;6334;48.696;2.114;2023-05-01T05:23:34;100046.23;;;12.43;70.53
12536;BME280;6334;48.696;2.114;2023-05-01T05:26:04;100039.71;;;12.40;70.25
12536;BME280;6334;48.696;2.114;2023-05-01T05:28:35;100023.02;;;12.60;69.09
12536;BME280;6334;48.696;2.114;2023-05-01T05:31:05;100038.28;;;12.66;69.45
12536;BME280;6334;48.696;2.114;2023-05-01T05:33:36;100046.84;;;12.62;70.66
12536;BME280;6334;48.696;2.114;2023-05-01T05:36:06;100043.99;;;12.39;70.71
12536;BME280;6334;48.696;2.114;2023-05-01T05:38:37;100040.52;;;12.54;71.09
12536;BME280;6334;48.696;2.114;2023-05-01T05:41:07;100045.88;;;12.61;71.02
12536;BME280;6334;48.696;2.114;2023-05-01T05:43:37;100047.99;;;12.73;69.13
12536;BME280;6334;48.696;2.114;2023-05-01T05:46:08;100043.76;;;12.87;69.71
12536;BME280;6334;48.696;2.114;2023-05-01T05:48:38;100045.83;;;12.43;71.39
12536;BME280;6334;48.696;2.114;2023-05-01T05:51:09;100043.34;;;12.99;69.04
12536;BME280;6334;48.696;2.114;2023-05-01T05:53:39;100043.42;;;12.63;70.73
12536;BME280;6334;48.696;2.114;2023-05-01T05:56:10;100038.25;;;12.91;69.47
12536;BME280;6334;48.696;2.114;2023-05-01T05:58:41;100036.52;;;12.78;70.86
12536;BME280;6334;48.696;2.114;2023-05-01T06:01:11;100035.64;;;12.77;71.08
12536;BME280;6334;48.696;2.114;2023-05-01T06:03:41;100040.41;;;12.79;69.89
12536;BME280;6334;48.696;2.114;2023-05-01T06:06:12;100037.95;;;12.97;69.45
12536;BME280;6334;48.696;2.114;2023-05-01T06:08:42;100039.33;;;13.03;70.66
12536;BME280;6334;48.696;2.114;2023-05-01T06:11:13;100044.02;;;12.71;71.56
12536;BME280;6334;48.696;2.114;2023-05-01T06:13:43;100044.77;;;13.31;68.75
12536;BME280;6334;48.696;2.114;2023-05-01T06:16:14;100047.23;;;12.92;70.76
12536;BME280;6334;48.696;2.114;2023-05-01T06:18:44;100053.86;;;13.26;69.50
12536;BME280;6334;48.696;2.114;2023-05-01T06:21:15;100051.91;;;13.20;69.16
12536;BME280;6334;48.696;2.114;2023-05-01T06:23:45;100053.20;;;13.21;69.61
12536;BME280;6334;48.696;2.114;2023-05-01T06:26:16;100059.36;;;13.53;68.25
12536;BME280;6334;48.696;2.114;2023-05-01T06:28:46;100051.76;;;13.30;69.37
12536;BME280;6334;48.696;2.114;2023-05-01T06:31:17;100059.41;;;13.48;68.63
12536;BME280;6334;48.696;2.114;2023-05-01T06:33:47;100057.53;;;13.49;68.30
12536;BME280;6334;48.696;2.114;2023-05-01T06:36:17;100059.55;;;13.55;67.91
12536;BME280;6334;48.696;2.114;2023-05-01T06:38:48;100057.52;;;13.70;67.83
12536;BME280;6334;48.696;2.114;2023-05-01T06:41:18;100056.63;;;13.76;66.95
12536;BME280;6334;48.696;2.114;2023-05-01T06:43:49;100057.47;;;13.69;67.46
12536;BME280;6334;48.696;2.114;2023-05-01T06:46:19;100053.00;;;13.54;69.31
12536;BME280;6334;48.696;2.114;2023-05-01T06:48:50;100056.56;;;13.98;66.75
12536;BME280;6334;48.696;2.114;2023-05-01T06:51:20;100062.33;;;13.65;68.42
12536;BME280;6334;48.696;2.114;2023-05-01T06:53:51;100060.52;;;13.71;68.10
12536;BME280;6334;48.696;2.114;2023-05-01T06:56:21;100063.00;;;13.16;69.10
12536;BME280;6334;48.696;2.114;2023-05-01T06:58:52;100069.91;;;13.45;68.99
12536;BME280;6334;48.696;2.114;2023-05-01T07:01:22;100077.95;;;13.28;68.81
12536;BME280;6334;48.696;2.114;2023-05-01T07:03:53;100059.66;;;13.16;68.98
12536;BME280;6334;48.696;2.114;2023-05-01T07:06:23;100077.58;;;13.50;68.54
12536;BME280;6334;48.696;2.114;2023-05-01T07:08:53;100081.30;;;13.55;68.77
12536;BME280;6334;48.696;2.114;2023-05-01T07:11:24;100081.37;;;13.86;66.95
12536;BME280;6334;48.696;2.114;2023-05-01T07:13:54;100086.00;;;13.47;68.12
12536;BME280;6334;48.696;2.114;2023-05-01T07:16:25;100090.31;;;13.69;67.44
12536;BME280;6334;48.696;2.114;2023-05-01T07:18:55;100088.31;;;13.58;68.40
12536;BME280;6334;48.696;2.114;2023-05-01T07:21:26;100091.69;;;13.54;67.68
12536;BME280;6334;48.696;2.114;2023-05-01T07:23:56;100098.63;;;13.96;67.77
12536;BME280;6334;48.696;2.114;2023-05-01T07:26:27;100094.25;;;14.03;67.56
12536;BME280;6334;48.696;2.114;2023-05-01T07:28:57;100091.56;;;14.17;66.77
12536;BME280;6334;48.696;2.114;2023-05-01T07:31:28;100097.34;;;14.26;66.83
12536;BME280;6334;48.696;2.114;2023-05-01T07:33:58;100097.91;;;14.14;66.19
12536;BME280;6334;48.696;2.114;2023-05-01T07:36:29;100091.22;;;14.65;64.62
12536;BME280;6334;48.696;2.114;2023-05-01T07:38:59;100090.69;;;14.85;64.17
12536;BME280;6334;48.696;2.114;2023-05-01T07:41:30;100087.41;;;14.45;65.53
12536;BME280;6334;48.696;2.114;2023-05-01T07:44:00;100098.89;;;14.57;65.12
12536;BME280;6334;48.696;2.114;2023-05-01T07:46:31;100103.08;;;14.28;66.58
12536;BME280;6334;48.696;2.114;2023-05-01T07:49:02;100065.55;;;13.41;68.67
12536;BME280;6334;48.696;2.114;2023-05-01T07:51:32;100103.52;;;13.66;68.07
12536;BME280;6334;48.696;2.114;2023-05-01T07:54:03;100102.08;;;13.63;68.19
12536;BME280;6334;48.696;2.114;2023-05-01T07:56:32;100096.50;;;13.62;68.19
12536;BME280;6334;48.696;2.114;2023-05-01T07:59:02;100099.28;;;13.92;67.69
12536;BME280;6334;48.696;2.114;2023-05-01T08:01:32;100094.69;;;13.65;69.22
12536;BME280;6334;48.696;2.114;2023-05-01T08:04:02;100095.55;;;13.78;68.19
12536;BME280;6334;48.696;2.114;2023-05-01T08:06:32;100077.54;;;13.92;67.38
12536;BME280;6334;48.696;2.114;2023-05-01T08:09:03;100098.17;;;14.01;66.95
12536;BME280;6334;48.696;2.114;2023-05-01T08:11:34;100100.80;;;13.60;68.70
12536;BME280;6334;48.696;2.114;2023-05-01T08:14:05;100100.23;;;14.02;67.07
12536;BME280;6334;48.696;2.114;2023-05-01T08:16:34;100106.13;;;13.80;67.98
12536;BME280;6334;48.696;2.114;2023-05-01T08:19:05;100105.50;;;13.61;68.65
12536;BME280;6334;48.696;2.114;2023-05-01T08:21:35;100114.02;;;13.82;67.73
12536;BME280;6334;48.696;2.114;2023-05-01T08:24:07;100112.05;;;13.83;67.83
12536;BME280;6334;48.696;2.114;2023-05-01T08:26:36;100113.80;;;13.80;68.71
12536;BME280;6334;48.696;2.114;2023-05-01T08:29:05;100109.66;;;13.75;68.54
12536;BME280;6334;48.696;2.114;2023-05-01T08:31:36;100108.09;;;13.38;69.18
12536;BME280;6334;48.696;2.114;2023-05-01T08:34:06;100103.42;;;13.34;69.46
12536;BME280;6334;48.696;2.114;2023-05-01T08:36:36;100107.93;;;13.92;67.72
12536;BME280;6334;48.696;2.114;2023-05-01T08:39:05;100107.22;;;13.80;68.57
12536;BME280;6334;48.696;2.114;2023-05-01T08:41:36;100109.97;;;13.80;68.51
12536;BME280;6334;48.696;2.114;2023-05-01T08:44:06;100106.95;;;13.80;69.16
12536;BME280;6334;48.696;2.114;2023-05-01T08:49:17;100112.45;;;14.25;67.82
12536;BME280;6334;48.696;2.114;2023-05-01T08:51:47;100120.38;;;14.06;67.78
12536;BME280;6334;48.696;2.114;2023-05-01T08:54:18;100123.61;;;14.46;68.45
12536;BME280;6334;48.696;2.114;2023-05-01T08:56:46;100122.70;;;14.52;67.91
12536;BME280;6334;48.696;2.114;2023-05-01T08:59:16;100123.78;;;15.01;67.06
12536;BME280;6334;48.696;2.114;2023-05-01T09:01:46;100131.16;;;13.99;69.37
12536;BME280;6334;48.696;2.114;2023-05-01T09:04:17;100126.88;;;14.40;67.68
12536;BME280;6334;48.696;2.114;2023-05-01T09:06:47;100130.38;;;14.24;68.80
12536;BME280;6334;48.696;2.114;2023-05-01T09:09:19;100132.89;;;14.08;68.93
12536;BME280;6334;48.696;2.114;2023-05-01T09:11:50;100132.19;;;14.24;68.04
12536;BME280;6334;48.696;2.114;2023-05-01T09:14:20;100141.36;;;13.99;69.24
12536;BME280;6334;48.696;2.114;2023-05-01T09:16:50;100139.25;;;14.03;69.25
12536;BME280;6334;48.696;2.114;2023-05-01T09:19:19;100119.72;;;14.19;68.52
12536;BME280;6334;48.696;2.114;2023-05-01T09:21:49;100138.24;;;14.21;69.30
12536;BME280;6334;48.696;2.114;2023-05-01T09:24:18;100138.09;;;14.23;69.31
12536;BME280;6334;48.696;2.114;2023-05-01T09:26:49;100143.98;;;14.45;68.73
12536;BME280;6334;48.696;2.114;2023-05-01T09:32:16;100145.80;;;13.93;70.51
12536;BME280;6334;48.696;2.114;2023-05-01T09:34:46;100145.55;;;14.30;68.53
12536;BME280;6334;48.696;2.114;2023-05-01T09:37:31;100141.22;;;14.18;68.81
12536;BME280;6334;48.696;2.114;2023-05-01T09:40:04;100145.93;;;13.97;69.75
12536;BME280;6334;48.696;2.114;2023-05-01T09:42:41;100149.97;;;13.88;70.82
12536;BME280;6334;48.696;2.114;2023-05-01T09:45:13;100156.70;;;14.01;70.39
12536;BME280;6334;48.696;2.114;2023-05-01T09:47:43;100154.59;;;13.95;70.91
12536;BME280;6334;48.696;2.114;2023-05-01T09:53:04;100156.34;;;13.96;71.19
12536;BME280;6334;48.696;2.114;2023-05-01T09:55:35;100157.12;;;14.01;71.09
12536;BME280;6334;48.696;2.114;2023-05-01T09:58:04;100161.72;;;13.94;71.27
12536;BME280;6334;48.696;2.114;2023-05-01T10:00:56;100160.52;;;13.93;70.66
12536;BME280;6334;48.696;2.114;2023-05-01T10:03:11;100157.62;;;13.94;71.73
12536;BME280;6334;48.696;2.114;2023-05-01T10:05:44;100158.48;;;14.00;70.84
12536;BME280;6334;48.696;2.114;2023-05-01T10:08:15;100160.63;;;14.02;71.38
12536;BME280;6334;48.696;2.114;2023-05-01T10:10:45;100156.69;;;14.42;69.94
12536;BME280;6334;48.696;2.114;2023-05-01T10:13:16;100158.30;;;14.38;70.14
12536;BME280;6334;48.696;2.114;2023-05-01T10:15:45;100155.08;;;14.60;69.33
12536;BME280;6334;48.696;2.114;2023-05-01T10:18:16;100155.13;;;14.41;69.90
12536;BME280;6334;48.696;2.114;2023-05-01T10:20:45;100154.72;;;14.92;68.29
12536;BME280;6334;48.696;2.114;2023-05-01T10:23:16;100152.25;;;14.69;70.71
12536;BME280;6334;48.696;2.114;2023-05-01T10:25:45;100149.94;;;15.13;67.54
12536;BME280;6334;48.696;2.114;2023-05-01T10:28:16;100144.73;;;15.11;68.99
12536;BME280;6334;48.696;2.114;2023-05-01T10:30:46;100148.59;;;15.50;67.08
12536;BME280;6334;48.696;2.114;2023-05-01T10:33:17;100142.60;;;15.43;67.49
12536;BME280;6334;48.696;2.114;2023-05-01T10:35:48;100139.86;;;15.48;66.60
12536;BME280;6334;48.696;2.114;2023-05-01T10:38:29;100141.49;;;15.41;66.55
12536;BME280;6334;48.696;2.114;2023-05-01T10:40:56;100139.67;;;15.72;66.03
12536;BME280;6334;48.696;2.114;2023-05-01T10:43:26;100137.70;;;16.29;65.92
12536;BME280;6334;48.696;2.114;2023-05-01T10:51:08;100130.28;;;16.78;62.99
12536;BME280;6334;48.696;2.114;2023-05-01T10:53:39;100120.95;;;16.66;63.13
12536;BME280;6334;48.696;2.114;2023-05-01T10:59:00;100116.58;;;17.48;63.03
12536;BME280;6334;48.696;2.114;2023-05-01T11:01:33;100110.16;;;17.34;61.97
12536;BME280;6334;48.696;2.114;2023-05-01T11:04:03;100109.99;;;17.66;61.63
12536;BME280;6334;48.696;2.114;2023-05-01T11:06:34;100114.94;;;17.03;62.83
12536;BME280;6334;48.696;2.114;2023-05-01T11:09:37;100118.44;;;16.88;61.35
12536;BME280;6334;48.696;2.114;2023-05-01T11:12:08;100117.95;;;16.42;62.96
12536;BME280;6334;48.696;2.114;2023-05-01T11:20:09;100107.77;;;17.45;57.46
12536;BME280;6334;48.696;2.114;2023-05-01T11:22:43;100106.87;;;17.63;59.53
12536;BME280;6334;48.696;2.114;2023-05-01T11:25:20;100105.34;;;18.27;56.71
12536;BME280;6334;48.696;2.114;2023-05-01T11:27:50;100096.64;;;17.63;57.85
12536;BME280;6334;48.696;2.114;2023-05-01T11:30:20;100092.95;;;17.48;59.74
12536;BME280;6334;48.696;2.114;2023-05-01T11:32:50;100094.92;;;17.30;59.66
12536;BME280;6334;48.696;2.114;2023-05-01T11:35:22;100102.98;;;17.04;60.07
12536;BME280;6334;48.696;2.114;2023-05-01T11:37:57;100107.45;;;16.54;59.81
12536;BME280;6334;48.696;2.114;2023-05-01T11:40:30;100126.41;;;16.00;65.22
12536;BME280;6334;48.696;2.114;2023-05-01T11:43:08;100108.91;;;15.38;67.28
12536;BME280;6334;48.696;2.114;2023-05-01T11:45:37;100123.67;;;15.67;67.91
12536;BME280;6334;48.696;2.114;2023-05-01T11:48:13;100110.16;;;15.03;69.82
12536;BME280;6334;48.696;2.114;2023-05-01T11:50:43;100125.13;;;14.96;71.20
12536;BME280;6334;48.696;2.114;2023-05-01T11:53:13;100126.05;;;15.08;69.65
12536;BME280;6334;48.696;2.114;2023-05-01T11:55:43;100121.22;;;15.01;70.65
12536;BME280;6334;48.696;2.114;2023-05-01T11:58:12;100128.12;;;15.02;72.20
12536;BME280;6334;48.696;2.114;2023-05-01T12:00:43;100131.77;;;15.35;70.97
12536;BME280;6334;48.696;2.114;2023-05-01T12:03:14;100134.87;;;14.38;75.89
12536;BME280;6334;48.696;2.114;2023-05-01T12:05:43;100140.41;;;15.23;73.26
12536;BME280;6334;48.696;2.114;2023-05-01T12:08:19;100137.69;;;14.90;76.28
12536;BME280;6334;48.696;2.114;2023-05-01T12:10:52;100141.77;;;14.91;75.37
12536;BME280;6334;48.696;2.114;2023-05-01T12:13:21;100117.19;;;15.35;73.00
12536;BME280;6334;48.696;2.114;2023-05-01T12:15:52;100137.52;;;15.50;73.95
12536;BME280;6334;48.696;2.114;2023-05-01T12:18:21;100138.88;;;15.55;76.60
12536;BME280;6334;48.696;2.114;2023-05-01T12:20:51;100137.79;;;15.27;74.54
12536;BME280;6334;48.696;2.114;2023-05-01T12:23:31;100148.48;;;14.90;74.81
12536;BME280;6334;48.696;2.114;2023-05-01T12:26:00;100150.25;;;14.52;75.48
12536;BME280;6334;48.696;2.114;2023-05-01T12:28:30;100156.14;;;14.00;77.95
12536;BME280;6334;48.696;2.114;2023-05-01T12:31:00;100150.62;;;14.47;74.89
12536;BME280;6334;48.696;2.114;2023-05-01T12:33:29;100145.87;;;14.66;74.46
12536;BME280;6334;48.696;2.114;2023-05-01T12:36:08;100142.24;;;14.51;75.37
12536;BME280;6334;48.696;2.114;2023-05-01T12:38:29;100139.48;;;14.73;75.01
12536;BME280;6334;48.696;2.114;2023-05-01T12:40:58;100137.64;;;14.88;75.21
12536;BME280;6334;48.696;2.114;2023-05-01T12:43:30;100138.70;;;15.30;73.07
12536;BME280;6334;48.696;2.114;2023-05-01T12:46:01;100139.55;;;14.62;78.04
12536;BME280;6334;48.696;2.114;2023-05-01T12:48:31;100139.98;;;15.19;75.40
12536;BME280;6334;48.696;2.114;2023-05-01T12:51:01;100140.33;;;14.82;76.86
12536;BME280;6334;48.696;2.114;2023-05-01T12:53:31;100138.08;;;14.85;75.74
12536;BME280;6334;48.696;2.114;2023-05-01T12:56:01;100138.12;;;14.80;75.98
12536;BME280;6334;48.696;2.114;2023-05-01T12:58:37;100143.08;;;14.82;76.61
12536;BME280;6334;48.696;2.114;2023-05-01T13:01:08;100148.06;;;15.15;74.42
12536;BME280;6334;48.696;2.114;2023-05-01T13:03:41;100145.58;;;14.95;76.20
12536;BME280;6334;48.696;2.114;2023-05-01T13:06:07;100142.75;;;15.21;76.43
12536;BME280;6334;48.696;2.114;2023-05-01T13:08:38;100138.45;;;15.30;73.29
12536;BME280;6334;48.696;2.114;2023-05-01T13:11:11;100121.78;;;15.18;76.18
12536;BME280;6334;48.696;2.114;2023-05-01T13:13:44;100138.64;;;15.13;72.44
12536;BME280;6334;48.696;2.114;2023-05-01T13:16:14;100132.89;;;15.56;72.79
12536;BME280;6334;48.696;2.114;2023-05-01T13:18:44;100140.55;;;14.90;74.66
12536;BME280;6334;48.696;2.114;2023-05-01T13:21:20;100136.05;;;15.12;74.98
12536;BME280;6334;48.696;2.114;2023-05-01T13:23:56;100125.47;;;15.08;71.94
12536;BME280;6334;48.696;2.114;2023-05-01T13:26:32;100131.05;;;15.08;74.97
12536;BME280;6334;48.696;2.114;2023-05-01T13:29:02;100136.77;;;15.45;72.18
12536;BME280;6334;48.696;2.114;2023-05-01T13:31:32;100139.36;;;15.76;70.49
12536;BME280;6334;48.696;2.114;2023-05-01T13:34:03;100133.72;;;15.53;67.99
12536;BME280;6334;48.696;2.114;2023-05-01T13:36:33;100129.79;;;15.37;67.29
12536;BME280;6334;48.696;2.114;2023-05-01T13:39:05;100134.14;;;15.64;70.13
12536;BME280;6334;48.696;2.114;2023-05-01T13:41:35;100133.70;;;15.47;69.36
12536;BME280;6334;48.696;2.114;2023-05-01T13:44:06;100144.56;;;15.79;69.82
12536;BME280;6334;48.696;2.114;2023-05-01T13:46:36;100139.17;;;15.72;68.32
12536;BME280;6334;48.696;2.114;2023-05-01T13:49:07;100144.94;;;15.52;70.24
12536;BME280;6334;48.696;2.114;2023-05-01T13:51:40;100141.44;;;15.08;66.87
12536;BME280;6334;48.696;2.114;2023-05-01T13:54:10;100148.63;;;15.48;68.14
12536;BME280;6334;48.696;2.114;2023-05-01T13:56:41;100149.98;;;15.40;68.66
12536;BME280;6334;48.696;2.114;2023-05-01T13:59:11;100149.56;;;15.42;67.05
12536;BME280;6334;48.696;2.114;2023-05-01T14:01:41;100123.48;;;15.00;69.45